sensor_id;sensor_type;location;lat;lon;timestamp;P1;durP1;ratioP1;P2;durP2;ratioP2
33690;SDS011;20026;50.058;18.428;2024-02-28T00:01:18;224.23;;;101.82;;
33690;SDS011;20026;50.058;18.428;2024-02-28T00:03:44;215.13;;;101.38;;
33690;SDS011;20026;50.058;18.428;2024-02-28T00:06:10;226.70;;;103.53;;
33690;SDS011;20026;50.058;18.428;2024-02-28T00:08:36;230.07;;;109.57;;
33690;SDS011;20026;50.058;18.428;2024-02-28T00:11:02;224.18;;;108.65;;
33690;SDS011;20026;50.058;18.428;2024-02-28T00:13:28;225.48;;;108.45;;
33690;SDS011;20026;50.058;18.428;2024-02-28T00:15:54;215.15;;;100.50;;
33690;SDS011;20026;50.058;18.428;2024-02-28T00:18:20;208.45;;;102.15;;
33690;SDS011;20026;50.058;18.428;2024-02-28T00:20:46;223.73;;;103.22;;
33690;SDS011;20026;50.058;18.428;2024-02-28T00:23:12;225.45;;;104.20;;
33690;SDS011;20026;50.058;18.428;2024-02-28T00:25:38;208.82;;;97.55;;
33690;SDS011;20026;50.058;18.428;2024-02-28T00:28:04;188.57;;;89.38;;
33690;SDS011;20026;50.058;18.428;2024-02-28T00:30:31;189.30;;;87.32;;
33690;SDS011;20026;50.058;18.428;2024-02-28T00:32:58;198.77;;;88.53;;
33690;SDS011;20026;50.058;18.428;2024-02-28T00:35:24;193.25;;;86.75;;
33690;SDS011;20026;50.058;18.428;2024-02-28T00:37:50;191.65;;;87.68;;
33690;SDS011;20026;50.058;18.428;2024-02-28T00:40:16;196.55;;;87.78;;
33690;SDS011;20026;50.058;18.428;2024-02-28T00:42:42;188.98;;;88.80;;
33690;SDS011;20026;50.058;18.428;2024-02-28T00:45:08;177.55;;;82.70;;
33690;SDS011;20026;50.058;18.428;2024-02-28T00:47:35;181.32;;;84.25;;
33690;SDS011;20026;50.058;18.428;2024-02-28T00:50:01;175.88;;;82.95;;
33690;SDS011;20026;50.058;18.428;2024-02-28T00:52:28;188.00;;;84.70;;
33690;SDS011;20026;50.058;18.428;2024-02-28T00:54:55;185.60;;;87.00;;
33690;SDS011;20026;50.058;18.428;2024-02-28T00:57:21;196.05;;;86.55;;
33690;SDS011;20026;50.058;18.428;2024-02-28T00:59:47;182.30;;;87.07;;
33690;SDS011;20026;50.058;18.428;2024-02-28T01:02:14;197.57;;;90.00;;
33690;SDS011;20026;50.058;18.428;2024-02-28T01:04:40;211.70;;;94.47;;
33690;SDS011;20026;50.058;18.428;2024-02-28T01:07:07;204.43;;;94.10;;
33690;SDS011;20026;50.058;18.428;2024-02-28T01:09:33;208.00;;;95.85;;
33690;SDS011;20026;50.058;18.428;2024-02-28T01:11:59;197.15;;;89.45;;
33690;SDS011;20026;50.058;18.428;2024-02-28T01:14:25;199.07;;;92.43;;
33690;SDS011;20026;50.058;18.428;2024-02-28T01:16:51;203.80;;;90.55;;
33690;SDS011;20026;50.058;18.428;2024-02-28T01:19:17;196.55;;;90.93;;
33690;SDS011;20026;50.058;18.428;2024-02-28T01:21:43;202.80;;;91.15;;
33690;SDS011;20026;50.058;18.428;2024-02-28T01:24:09;200.07;;;90.40;;
33690;SDS011;20026;50.058;18.428;2024-02-28T01:26:36;192.32;;;88.07;;
33690;SDS011;20026;50.058;18.428;2024-02-28T01:29:02;200.35;;;92.30;;
33690;SDS011;20026;50.058;18.428;2024-02-28T01:31:28;193.52;;;90.22;;
33690;SDS011;20026;50.058;18.428;2024-02-28T01:33:54;205.68;;;93.13;;
33690;SDS011;20026;50.058;18.428;2024-02-28T01:36:20;205.13;;;94.63;;
33690;SDS011;20026;50.058;18.428;2024-02-28T01:38:47;213.13;;;96.78;;
33690;SDS011;20026;50.058;18.428;2024-02-28T01:41:13;217.05;;;97.30;;
33690;SDS011;20026;50.058;18.428;2024-02-28T01:43:39;220.85;;;99.28;;
33690;SDS011;20026;50.058;18.428;2024-02-28T01:46:06;231.82;;;102.60;;
33690;SDS011;20026;50.058;18.428;2024-02-28T01:48:38;215.18;;;94.45;;
33690;SDS011;20026;50.058;18.428;2024-02-28T01:51:04;225.82;;;99.03;;
33690;SDS011;20026;50.058;18.428;2024-02-28T01:53:31;217.85;;;95.45;;
33690;SDS011;20026;50.058;18.428;2024-02-28T01:55:57;215.23;;;93.60;;
33690;SDS011;20026;50.058;18.428;2024-02-28T01:58:23;205.23;;;92.18;;
33690;SDS011;20026;50.058;18.428;2024-02-28T02:00:49;207.32;;;92.10;;
33690;SDS011;20026;50.058;18.428;2024-02-28T02:03:15;198.57;;;88.97;;
33690;SDS011;20026;50.058;18.428;2024-02-28T02:05:41;191.45;;;86.25;;
33690;SDS011;20026;50.058;18.428;2024-02-28T02:08:08;192.50;;;84.80;;
33690;SDS011;20026;50.058;18.428;2024-02-28T02:10:35;198.55;;;89.78;;
33690;SDS011;20026;50.058;18.428;2024-02-28T02:13:04;193.07;;;86.50;;
33690;SDS011;20026;50.058;18.428;2024-02-28T02:15:31;188.32;;;87.68;;
33690;SDS011;20026;50.058;18.428;2024-02-28T02:17:57;203.95;;;85.63;;
33690;SDS011;20026;50.058;18.428;2024-02-28T02:20:23;208.90;;;95.72;;
33690;SDS011;20026;50.058;18.428;2024-02-28T02:22:52;253.45;;;115.65;;
33690;SDS011;20026;50.058;18.428;2024-02-28T02:25:18;270.77;;;122.32;;
33690;SDS011;20026;50.058;18.428;2024-02-28T02:27:44;267.65;;;120.13;;
33690;SDS011;20026;50.058;18.428;2024-02-28T02:30:10;239.63;;;104.07;;
33690;SDS011;20026;50.058;18.428;2024-02-28T02:32:37;241.18;;;102.97;;
33690;SDS011;20026;50.058;18.428;2024-02-28T02:35:03;229.20;;;100.10;;
33690;SDS011;20026;50.058;18.428;2024-02-28T02:37:29;251.45;;;108.50;;
33690;SDS011;20026;50.058;18.428;2024-02-28T02:39:55;245.82;;;104.90;;
33690;SDS011;20026;50.058;18.428;2024-02-28T02:42:21;242.52;;;104.10;;
33690;SDS011;20026;50.058;18.428;2024-02-28T02:44:47;227.75;;;97.68;;
33690;SDS011;20026;50.058;18.428;2024-02-28T02:47:13;214.73;;;94.85;;
33690;SDS011;20026;50.058;18.428;2024-02-28T02:49:39;231.35;;;103.70;;
33690;SDS011;20026;50.058;18.428;2024-02-28T02:52:05;231.65;;;104.05;;
33690;SDS011;20026;50.058;18.428;2024-02-28T02:54:31;242.65;;;108.32;;
33690;SDS011;20026;50.058;18.428;2024-02-28T02:56:57;241.90;;;109.32;;
33690;SDS011;20026;50.058;18.428;2024-02-28T02:59:24;233.38;;;105.88;;
33690;SDS011;20026;50.058;18.428;2024-02-28T03:01:50;236.40;;;102.00;;
33690;SDS011;20026;50.058;18.428;2024-02-28T03:04:16;235.02;;;103.25;;
33690;SDS011;20026;50.058;18.428;2024-02-28T03:06:42;229.30;;;99.05;;
33690;SDS011;20026;50.058;18.428;2024-02-28T03:09:08;245.18;;;104.82;;
33690;SDS011;20026;50.058;18.428;2024-02-28T03:11:34;225.23;;;97.10;;
33690;SDS011;20026;50.058;18.428;2024-02-28T03:14:00;213.75;;;92.68;;
33690;SDS011;20026;50.058;18.428;2024-02-28T03:16:27;179.55;;;82.05;;
33690;SDS011;20026;50.058;18.428;2024-02-28T03:18:54;179.48;;;83.00;;
33690;SDS011;20026;50.058;18.428;2024-02-28T03:21:20;175.90;;;80.60;;
33690;SDS011;20026;50.058;18.428;2024-02-28T03:23:46;186.35;;;83.82;;
33690;SDS011;20026;50.058;18.428;2024-02-28T03:26:13;194.38;;;83.65;;
33690;SDS011;20026;50.058;18.428;2024-02-28T03:28:39;194.68;;;79.85;;
33690;SDS011;20026;50.058;18.428;2024-02-28T03:31:05;184.80;;;77.88;;
33690;SDS011;20026;50.058;18.428;2024-02-28T03:33:31;200.23;;;80.93;;
33690;SDS011;20026;50.058;18.428;2024-02-28T03:35:58;178.05;;;76.38;;
33690;SDS011;20026;50.058;18.428;2024-02-28T03:38:24;181.73;;;76.50;;
33690;SDS011;20026;50.058;18.428;2024-02-28T03:40:50;196.23;;;75.50;;
33690;SDS011;20026;50.058;18.428;2024-02-28T03:43:16;182.48;;;77.32;;
33690;SDS011;20026;50.058;18.428;2024-02-28T03:45:42;177.90;;;75.43;;
33690;SDS011;20026;50.058;18.428;2024-02-28T03:48:08;204.30;;;76.88;;
33690;SDS011;20026;50.058;18.428;2024-02-28T03:50:34;183.50;;;76.95;;
33690;SDS011;20026;50.058;18.428;2024-02-28T03:53:00;182.90;;;75.10;;
33690;SDS011;20026;50.058;18.428;2024-02-28T03:55:27;188.00;;;75.03;;
33690;SDS011;20026;50.058;18.428;2024-02-28T03:57:53;166.82;;;71.63;;
33690;SDS011;20026;50.058;18.428;2024-02-28T04:00:19;147.85;;;68.10;;
33690;SDS011;20026;50.058;18.428;2024-02-28T04:02:45;144.80;;;66.55;;
33690;SDS011;20026;50.058;18.428;2024-02-28T04:05:11;147.48;;;67.70;;
33690;SDS011;20026;50.058;18.428;2024-02-28T04:07:37;204.68;;;71.45;;
33690;SDS011;20026;50.058;18.428;2024-02-28T04:10:03;178.60;;;72.97;;
33690;SDS011;20026;50.058;18.428;2024-02-28T04:12:30;189.00;;;80.57;;
33690;SDS011;20026;50.058;18.428;2024-02-28T04:14:56;210.73;;;81.00;;
33690;SDS011;20026;50.058;18.428;2024-02-28T04:17:22;189.20;;;76.30;;
33690;SDS011;20026;50.058;18.428;2024-02-28T04:19:48;241.20;;;78.97;;
33690;SDS011;20026;50.058;18.428;2024-02-28T04:22:14;217.38;;;76.70;;
33690;SDS011;20026;50.058;18.428;2024-02-28T04:24:40;238.82;;;75.75;;
33690;SDS011;20026;50.058;18.428;2024-02-28T04:27:07;187.27;;;74.65;;
33690;SDS011;20026;50.058;18.428;2024-02-28T04:29:35;221.52;;;78.97;;
33690;SDS011;20026;50.058;18.428;2024-02-28T04:32:01;230.00;;;77.88;;
33690;SDS011;20026;50.058;18.428;2024-02-28T04:34:27;224.52;;;78.18;;
33690;SDS011;20026;50.058;18.428;2024-02-28T04:36:53;267.98;;;78.07;;
33690;SDS011;20026;50.058;18.428;2024-02-28T04:39:19;257.77;;;75.95;;
33690;SDS011;20026;50.058;18.428;2024-02-28T04:41:45;280.23;;;74.68;;
33690;SDS011;20026;50.058;18.428;2024-02-28T04:44:11;339.10;;;70.40;;
33690;SDS011;20026;50.058;18.428;2024-02-28T04:46:37;330.05;;;71.15;;
33690;SDS011;20026;50.058;18.428;2024-02-28T04:49:04;257.65;;;69.35;;
33690;SDS011;20026;50.058;18.428;2024-02-28T04:51:30;250.43;;;71.13;;
33690;SDS011;20026;50.058;18.428;2024-02-28T04:53:56;299.63;;;72.00;;
33690;SDS011;20026;50.058;18.428;2024-02-28T04:56:22;218.02;;;70.82;;
33690;SDS011;20026;50.058;18.428;2024-02-28T04:58:49;286.80;;;72.93;;
33690;SDS011;20026;50.058;18.428;2024-02-28T05:01:15;289.50;;;70.40;;
33690;SDS011;20026;50.058;18.428;2024-02-28T05:03:41;257.90;;;70.45;;
33690;SDS011;20026;50.058;18.428;2024-02-28T05:06:07;274.50;;;70.35;;
33690;SDS011;20026;50.058;18.428;2024-02-28T05:08:33;247.93;;;71.35;;
33690;SDS011;20026;50.058;18.428;2024-02-28T05:11:00;292.40;;;70.32;;
33690;SDS011;20026;50.058;18.428;2024-02-28T05:13:26;255.60;;;71.82;;
33690;SDS011;20026;50.058;18.428;2024-02-28T05:15:52;207.98;;;67.55;;
33690;SDS011;20026;50.058;18.428;2024-02-28T05:18:19;255.65;;;71.03;;
33690;SDS011;20026;50.058;18.428;2024-02-28T05:20:45;251.60;;;70.32;;
33690;SDS011;20026;50.058;18.428;2024-02-28T05:23:11;291.02;;;72.53;;
33690;SDS011;20026;50.058;18.428;2024-02-28T05:25:37;228.82;;;72.25;;
33690;SDS011;20026;50.058;18.428;2024-02-28T05:28:04;307.00;;;73.40;;
33690;SDS011;20026;50.058;18.428;2024-02-28T05:30:30;329.02;;;70.78;;
33690;SDS011;20026;50.058;18.428;2024-02-28T05:32:56;310.50;;;66.28;;
33690;SDS011;20026;50.058;18.428;2024-02-28T05:35:22;220.02;;;68.30;;
33690;SDS011;20026;50.058;18.428;2024-02-28T05:37:52;240.82;;;65.35;;
33690;SDS011;20026;50.058;18.428;2024-02-28T05:40:19;245.98;;;66.82;;
33690;SDS011;20026;50.058;18.428;2024-02-28T05:42:45;245.30;;;67.68;;
33690;SDS011;20026;50.058;18.428;2024-02-28T05:45:11;369.63;;;74.45;;
33690;SDS011;20026;50.058;18.428;2024-02-28T05:47:37;229.50;;;69.03;;
33690;SDS011;20026;50.058;18.428;2024-02-28T05:50:04;266.73;;;71.20;;
33690;SDS011;20026;50.058;18.428;2024-02-28T05:52:30;267.95;;;68.10;;
33690;SDS011;20026;50.058;18.428;2024-02-28T05:54:56;285.83;;;65.90;;
33690;SDS011;20026;50.058;18.428;2024-02-28T05:57:23;271.65;;;66.65;;
33690;SDS011;20026;50.058;18.428;2024-02-28T05:59:49;306.33;;;70.90;;
33690;SDS011;20026;50.058;18.428;2024-02-28T06:02:15;317.77;;;73.28;;
33690;SDS011;20026;50.058;18.428;2024-02-28T06:04:41;326.98;;;73.50;;
33690;SDS011;20026;50.058;18.428;2024-02-28T06:07:07;411.35;;;71.88;;
33690;SDS011;20026;50.058;18.428;2024-02-28T06:09:33;265.55;;;85.70;;
33690;SDS011;20026;50.058;18.428;2024-02-28T06:11:59;324.58;;;75.80;;
33690;SDS011;20026;50.058;18.428;2024-02-28T06:14:26;262.67;;;73.80;;
33690;SDS011;20026;50.058;18.428;2024-02-28T06:16:53;249.55;;;73.90;;
33690;SDS011;20026;50.058;18.428;2024-02-28T06:19:19;250.25;;;75.85;;
33690;SDS011;20026;50.058;18.428;2024-02-28T06:21:45;368.52;;;74.30;;
33690;SDS011;20026;50.058;18.428;2024-02-28T06:24:11;214.65;;;74.22;;
33690;SDS011;20026;50.058;18.428;2024-02-28T06:26:37;250.80;;;72.22;;
33690;SDS011;20026;50.058;18.428;2024-02-28T06:29:03;307.33;;;69.38;;
33690;SDS011;20026;50.058;18.428;2024-02-28T06:31:31;264.15;;;72.63;;
33690;SDS011;20026;50.058;18.428;2024-02-28T06:33:57;271.27;;;83.47;;
33690;SDS011;20026;50.058;18.428;2024-02-28T06:36:23;285.33;;;86.43;;
33690;SDS011;20026;50.058;18.428;2024-02-28T06:38:49;257.23;;;86.50;;
33690;SDS011;20026;50.058;18.428;2024-02-28T06:41:15;263.98;;;88.18;;
33690;SDS011;20026;50.058;18.428;2024-02-28T06:43:41;262.17;;;82.72;;
33690;SDS011;20026;50.058;18.428;2024-02-28T06:46:08;308.20;;;86.00;;
33690;SDS011;20026;50.058;18.428;2024-02-28T06:48:34;233.82;;;80.93;;
33690;SDS011;20026;50.058;18.428;2024-02-28T06:51:00;225.60;;;75.65;;
33690;SDS011;20026;50.058;18.428;2024-02-28T06:53:26;216.05;;;74.10;;
33690;SDS011;20026;50.058;18.428;2024-02-28T06:55:53;233.38;;;75.07;;
33690;SDS011;20026;50.058;18.428;2024-02-28T06:58:19;212.10;;;72.25;;
33690;SDS011;20026;50.058;18.428;2024-02-28T07:00:45;202.32;;;69.90;;
33690;SDS011;20026;50.058;18.428;2024-02-28T07:03:11;190.82;;;69.72;;
33690;SDS011;20026;50.058;18.428;2024-02-28T07:05:37;235.10;;;71.43;;
33690;SDS011;20026;50.058;18.428;2024-02-28T07:08:04;196.15;;;70.68;;
33690;SDS011;20026;50.058;18.428;2024-02-28T07:10:30;228.43;;;79.07;;
33690;SDS011;20026;50.058;18.428;2024-02-28T07:12:56;241.52;;;77.15;;
33690;SDS011;20026;50.058;18.428;2024-02-28T07:15:22;238.50;;;74.53;;
33690;SDS011;20026;50.058;18.428;2024-02-28T07:17:48;243.98;;;72.50;;
33690;SDS011;20026;50.058;18.428;2024-02-28T07:20:14;195.23;;;70.75;;
33690;SDS011;20026;50.058;18.428;2024-02-28T07:22:42;223.68;;;81.90;;
33690;SDS011;20026;50.058;18.428;2024-02-28T07:25:08;209.93;;;79.43;;
33690;SDS011;20026;50.058;18.428;2024-02-28T07:27:34;217.50;;;81.30;;
33690;SDS011;20026;50.058;18.428;2024-02-28T07:30:03;225.68;;;83.15;;
33690;SDS011;20026;50.058;18.428;2024-02-28T07:32:29;195.38;;;75.97;;
33690;SDS011;20026;50.058;18.428;2024-02-28T07:35:00;212.02;;;75.68;;
33690;SDS011;20026;50.058;18.428;2024-02-28T07:37:26;198.50;;;76.97;;
33690;SDS011;20026;50.058;18.428;2024-02-28T07:39:52;210.65;;;78.18;;
33690;SDS011;20026;50.058;18.428;2024-02-28T07:42:18;198.40;;;78.05;;
33690;SDS011;20026;50.058;18.428;2024-02-28T07:44:44;173.40;;;73.75;;
33690;SDS011;20026;50.058;18.428;2024-02-28T07:47:10;171.68;;;72.93;;
33690;SDS011;20026;50.058;18.428;2024-02-28T07:49:36;177.77;;;70.55;;
33690;SDS011;20026;50.058;18.428;2024-02-28T07:52:02;179.85;;;70.15;;
33690;SDS011;20026;50.058;18.428;2024-02-28T07:54:28;171.57;;;69.55;;
33690;SDS011;20026;50.058;18.428;2024-02-28T07:56:54;167.27;;;67.70;;
33690;SDS011;20026;50.058;18.428;2024-02-28T07:59:20;163.07;;;67.38;;
33690;SDS011;20026;50.058;18.428;2024-02-28T08:01:47;159.40;;;68.88;;
33690;SDS011;20026;50.058;18.428;2024-02-28T08:04:13;152.15;;;67.45;;
33690;SDS011;20026;50.058;18.428;2024-02-28T08:06:39;154.88;;;66.50;;
33690;SDS011;20026;50.058;18.428;2024-02-28T08:09:06;145.57;;;66.05;;
33690;SDS011;20026;50.058;18.428;2024-02-28T08:11:32;144.95;;;66.13;;
33690;SDS011;20026;50.058;18.428;2024-02-28T08:13:58;148.95;;;65.05;;
33690;SDS011;20026;50.058;18.428;2024-02-28T08:16:24;148.48;;;66.93;;
33690;SDS011;20026;50.058;18.428;2024-02-28T08:18:50;173.80;;;75.68;;
33690;SDS011;20026;50.058;18.428;2024-02-28T08:21:17;170.77;;;72.70;;
33690;SDS011;20026;50.058;18.428;2024-02-28T08:23:43;172.88;;;75.35;;
33690;SDS011;20026;50.058;18.428;2024-02-28T08:26:10;168.13;;;72.10;;
33690;SDS011;20026;50.058;18.428;2024-02-28T08:28:36;166.38;;;69.45;;
33690;SDS011;20026;50.058;18.428;2024-02-28T08:31:02;157.57;;;67.47;;
33690;SDS011;20026;50.058;18.428;2024-02-28T08:33:28;148.25;;;62.08;;
33690;SDS011;20026;50.058;18.428;2024-02-28T08:35:54;154.10;;;66.80;;
33690;SDS011;20026;50.058;18.428;2024-02-28T08:38:21;159.07;;;66.63;;
33690;SDS011;20026;50.058;18.428;2024-02-28T08:40:47;178.40;;;72.60;;
33690;SDS011;20026;50.058;18.428;2024-02-28T08:43:13;176.85;;;78.57;;
33690;SDS011;20026;50.058;18.428;2024-02-28T08:45:39;183.43;;;76.38;;
33690;SDS011;20026;50.058;18.428;2024-02-28T08:48:05;187.90;;;75.85;;
33690;SDS011;20026;50.058;18.428;2024-02-28T08:50:32;177.98;;;74.93;;
33690;SDS011;20026;50.058;18.428;2024-02-28T08:52:58;180.50;;;70.95;;
33690;SDS011;20026;50.058;18.428;2024-02-28T08:55:24;174.02;;;70.85;;
33690;SDS011;20026;50.058;18.428;2024-02-28T08:57:50;189.30;;;79.78;;
33690;SDS011;20026;50.058;18.428;2024-02-28T09:00:16;188.38;;;77.00;;
33690;SDS011;20026;50.058;18.428;2024-02-28T09:02:42;182.23;;;77.60;;
33690;SDS011;20026;50.058;18.428;2024-02-28T09:05:09;131.52;;;61.85;;
33690;SDS011;20026;50.058;18.428;2024-02-28T09:07:35;124.15;;;59.85;;
33690;SDS011;20026;50.058;18.428;2024-02-28T09:10:04;112.43;;;56.47;;
33690;SDS011;20026;50.058;18.428;2024-02-28T09:12:31;118.78;;;55.63;;
33690;SDS011;20026;50.058;18.428;2024-02-28T09:14:57;127.28;;;61.03;;
33690;SDS011;20026;50.058;18.428;2024-02-28T09:17:24;125.75;;;63.70;;
33690;SDS011;20026;50.058;18.428;2024-02-28T09:19:50;102.53;;;53.47;;
33690;SDS011;20026;50.058;18.428;2024-02-28T09:22:19;93.07;;;49.75;;
33690;SDS011;20026;50.058;18.428;2024-02-28T09:24:46;96.63;;;52.50;;
33690;SDS011;20026;50.058;18.428;2024-02-28T09:27:13;96.93;;;50.55;;
33690;SDS011;20026;50.058;18.428;2024-02-28T09:29:39;88.65;;;46.97;;
33690;SDS011;20026;50.058;18.428;2024-02-28T09:32:06;87.22;;;46.97;;
33690;SDS011;20026;50.058;18.428;2024-02-28T09:34:32;89.03;;;49.70;;
33690;SDS011;20026;50.058;18.428;2024-02-28T09:36:58;84.97;;;47.92;;
33690;SDS011;20026;50.058;18.428;2024-02-28T09:39:24;82.50;;;46.17;;
33690;SDS011;20026;50.058;18.428;2024-02-28T09:41:50;82.13;;;44.55;;
33690;SDS011;20026;50.058;18.428;2024-02-28T09:44:17;77.43;;;43.33;;
33690;SDS011;20026;50.058;18.428;2024-02-28T09:46:43;81.18;;;45.80;;
33690;SDS011;20026;50.058;18.428;2024-02-28T09:49:10;78.93;;;45.20;;
33690;SDS011;20026;50.058;18.428;2024-02-28T09:51:36;83.70;;;45.42;;
33690;SDS011;20026;50.058;18.428;2024-02-28T09:54:03;80.53;;;44.72;;
33690;SDS011;20026;50.058;18.428;2024-02-28T09:56:30;85.30;;;45.85;;
33690;SDS011;20026;50.058;18.428;2024-02-28T09:58:56;88.35;;;47.80;;
33690;SDS011;20026;50.058;18.428;2024-02-28T10:01:22;85.95;;;47.08;;
33690;SDS011;20026;50.058;18.428;2024-02-28T10:03:50;84.50;;;46.80;;
33690;SDS011;20026;50.058;18.428;2024-02-28T10:06:20;98.43;;;54.15;;
33690;SDS011;20026;50.058;18.428;2024-02-28T10:08:46;85.85;;;47.80;;
33690;SDS011;20026;50.058;18.428;2024-02-28T10:11:22;87.93;;;47.92;;
33690;SDS011;20026;50.058;18.428;2024-02-28T10:13:48;86.47;;;47.83;;
33690;SDS011;20026;50.058;18.428;2024-02-28T10:16:14;93.07;;;48.00;;
33690;SDS011;20026;50.058;18.428;2024-02-28T10:18:44;84.93;;;46.38;;
33690;SDS011;20026;50.058;18.428;2024-02-28T10:21:13;96.68;;;50.03;;
33690;SDS011;20026;50.058;18.428;2024-02-28T10:23:43;91.95;;;48.22;;
33690;SDS011;20026;50.058;18.428;2024-02-28T10:26:10;97.47;;;51.95;;
33690;SDS011;20026;50.058;18.428;2024-02-28T10:28:39;94.60;;;49.95;;
33690;SDS011;20026;50.058;18.428;2024-02-28T10:33:32;93.03;;;47.63;;
33690;SDS011;20026;50.058;18.428;2024-02-28T10:35:58;91.60;;;46.58;;
33690;SDS011;20026;50.058;18.428;2024-02-28T10:38:26;89.38;;;47.83;;
33690;SDS011;20026;50.058;18.428;2024-02-28T10:40:52;105.28;;;51.65;;
33690;SDS011;20026;50.058;18.428;2024-02-28T10:43:19;99.70;;;47.67;;
33690;SDS011;20026;50.058;18.428;2024-02-28T10:45:46;88.88;;;44.00;;
33690;SDS011;20026;50.058;18.428;2024-02-28T10:48:15;90.65;;;45.42;;
33690;SDS011;20026;50.058;18.428;2024-02-28T10:50:43;95.82;;;47.17;;
33690;SDS011;20026;50.058;18.428;2024-02-28T10:53:11;114.55;;;50.28;;
33690;SDS011;20026;50.058;18.428;2024-02-28T10:55:42;123.75;;;51.38;;
33690;SDS011;20026;50.058;18.428;2024-02-28T10:58:11;100.72;;;44.70;;
33690;SDS011;20026;50.058;18.428;2024-02-28T11:00:41;84.40;;;43.17;;
33690;SDS011;20026;50.058;18.428;2024-02-28T11:03:10;81.30;;;42.17;;
33690;SDS011;20026;50.058;18.428;2024-02-28T11:05:40;88.38;;;44.53;;
33690;SDS011;20026;50.058;18.428;2024-02-28T11:08:10;87.03;;;45.13;;
33690;SDS011;20026;50.058;18.428;2024-02-28T11:10:40;94.03;;;45.80;;
33690;SDS011;20026;50.058;18.428;2024-02-28T11:13:07;90.32;;;43.88;;
33690;SDS011;20026;50.058;18.428;2024-02-28T11:15:35;96.65;;;45.13;;
33690;SDS011;20026;50.058;18.428;2024-02-28T11:18:09;86.28;;;42.08;;
33690;SDS011;20026;50.058;18.428;2024-02-28T11:20:35;82.93;;;40.38;;
33690;SDS011;20026;50.058;18.428;2024-02-28T11:23:01;78.90;;;39.78;;
33690;SDS011;20026;50.058;18.428;2024-02-28T11:25:27;84.53;;;39.80;;
33690;SDS011;20026;50.058;18.428;2024-02-28T11:27:53;75.32;;;39.03;;
33690;SDS011;20026;50.058;18.428;2024-02-28T11:30:19;79.22;;;41.17;;
33690;SDS011;20026;50.058;18.428;2024-02-28T11:32:45;77.05;;;40.70;;
33690;SDS011;20026;50.058;18.428;2024-02-28T11:35:12;79.22;;;39.13;;
33690;SDS011;20026;50.058;18.428;2024-02-28T11:37:38;74.75;;;37.83;;
33690;SDS011;20026;50.058;18.428;2024-02-28T11:40:08;84.47;;;41.00;;
33690;SDS011;20026;50.058;18.428;2024-02-28T11:42:37;79.80;;;40.13;;
33690;SDS011;20026;50.058;18.428;2024-02-28T11:45:04;84.07;;;42.92;;
33690;SDS011;20026;50.058;18.428;2024-02-28T11:47:34;93.50;;;45.97;;
33690;SDS011;20026;50.058;18.428;2024-02-28T11:50:00;82.78;;;41.42;;
33690;SDS011;20026;50.058;18.428;2024-02-28T11:52:27;83.15;;;43.30;;
33690;SDS011;20026;50.058;18.428;2024-02-28T11:54:53;80.40;;;43.40;;
33690;SDS011;20026;50.058;18.428;2024-02-28T11:57:19;79.68;;;41.83;;
33690;SDS011;20026;50.058;18.428;2024-02-28T11:59:45;88.60;;;42.90;;
33690;SDS011;20026;50.058;18.428;2024-02-28T12:02:12;108.07;;;50.03;;
33690;SDS011;20026;50.058;18.428;2024-02-28T12:04:42;97.70;;;47.33;;
33690;SDS011;20026;50.058;18.428;2024-02-28T12:09:34;77.90;;;40.05;;
33690;SDS011;20026;50.058;18.428;2024-02-28T12:12:01;86.53;;;44.88;;
33690;SDS011;20026;50.058;18.428;2024-02-28T12:14:31;82.75;;;40.25;;
33690;SDS011;20026;50.058;18.428;2024-02-28T12:16:57;77.40;;;38.87;;
33690;SDS011;20026;50.058;18.428;2024-02-28T12:19:24;76.88;;;39.15;;
33690;SDS011;20026;50.058;18.428;2024-02-28T12:21:50;73.70;;;37.58;;
33690;SDS011;20026;50.058;18.428;2024-02-28T12:24:16;78.20;;;40.00;;
33690;SDS011;20026;50.058;18.428;2024-02-28T12:26:42;80.72;;;41.83;;
33690;SDS011;20026;50.058;18.428;2024-02-28T12:29:08;71.38;;;39.95;;
33690;SDS011;20026;50.058;18.428;2024-02-28T12:31:35;79.10;;;40.03;;
33690;SDS011;20026;50.058;18.428;2024-02-28T12:34:02;75.65;;;37.58;;
33690;SDS011;20026;50.058;18.428;2024-02-28T12:36:31;71.20;;;36.33;;
33690;SDS011;20026;50.058;18.428;2024-02-28T12:38:57;71.35;;;37.25;;
33690;SDS011;20026;50.058;18.428;2024-02-28T12:41:25;80.90;;;38.20;;
33690;SDS011;20026;50.058;18.428;2024-02-28T12:43:51;78.57;;;39.00;;
33690;SDS011;20026;50.058;18.428;2024-02-28T12:46:17;80.15;;;42.88;;
33690;SDS011;20026;50.058;18.428;2024-02-28T12:48:43;73.95;;;36.85;;
33690;SDS011;20026;50.058;18.428;2024-02-28T12:51:13;79.82;;;41.53;;
33690;SDS011;20026;50.058;18.428;2024-02-28T12:53:46;81.28;;;43.58;;
33690;SDS011;20026;50.058;18.428;2024-02-28T12:56:14;75.75;;;40.80;;
33690;SDS011;20026;50.058;18.428;2024-02-28T12:58:40;83.70;;;42.28;;
33690;SDS011;20026;50.058;18.428;2024-02-28T13:01:06;80.70;;;41.20;;
33690;SDS011;20026;50.058;18.428;2024-02-28T13:03:33;82.70;;;42.38;;
33690;SDS011;20026;50.058;18.428;2024-02-28T13:05:59;80.53;;;39.60;;
33690;SDS011;20026;50.058;18.428;2024-02-28T13:08:25;76.35;;;39.15;;
33690;SDS011;20026;50.058;18.428;2024-02-28T13:10:51;80.70;;;40.03;;
33690;SDS011;20026;50.058;18.428;2024-02-28T13:13:17;80.00;;;41.60;;
33690;SDS011;20026;50.058;18.428;2024-02-28T13:15:43;80.40;;;40.45;;
33690;SDS011;20026;50.058;18.428;2024-02-28T13:18:10;77.82;;;41.90;;
33690;SDS011;20026;50.058;18.428;2024-02-28T13:20:36;85.18;;;42.97;;
33690;SDS011;20026;50.058;18.428;2024-02-28T13:23:03;77.18;;;39.83;;
33690;SDS011;20026;50.058;18.428;2024-02-28T13:25:29;70.82;;;36.30;;
33690;SDS011;20026;50.058;18.428;2024-02-28T13:27:56;70.35;;;38.22;;
33690;SDS011;20026;50.058;18.428;2024-02-28T13:30:22;77.60;;;39.03;;
33690;SDS011;20026;50.058;18.428;2024-02-28T13:32:48;76.00;;;38.45;;
33690;SDS011;20026;50.058;18.428;2024-02-28T13:35:14;80.82;;;40.40;;
33690;SDS011;20026;50.058;18.428;2024-02-28T13:37:40;68.47;;;37.28;;
33690;SDS011;20026;50.058;18.428;2024-02-28T13:40:07;71.72;;;38.25;;
33690;SDS011;20026;50.058;18.428;2024-02-28T13:42:35;77.85;;;41.45;;
33690;SDS011;20026;50.058;18.428;2024-02-28T13:45:02;66.07;;;36.72;;
33690;SDS011;20026;50.058;18.428;2024-02-28T13:49:58;64.18;;;35.22;;
33690;SDS011;20026;50.058;18.428;2024-02-28T13:52:24;71.57;;;35.95;;
33690;SDS011;20026;50.058;18.428;2024-02-28T13:54:50;61.78;;;34.17;;
33690;SDS011;20026;50.058;18.428;2024-02-28T13:57:17;74.45;;;36.70;;
33690;SDS011;20026;50.058;18.428;2024-02-28T13:59:43;72.95;;;37.80;;
33690;SDS011;20026;50.058;18.428;2024-02-28T14:02:14;78.75;;;42.53;;